createdAt,value
2023-03-24T00:00:21.583Z,22.20
2023-03-24T00:02:49.839Z,22.10
2023-03-24T00:05:17.796Z,22.20
2023-03-24T00:10:14.956Z,22.10
2023-03-24T00:12:42.678Z,22.10
2023-03-24T00:15:11.216Z,22.10
2023-03-24T00:17:39.545Z,22.10
2023-03-24T00:20:07.996Z,22.10
2023-03-24T00:22:34.752Z,22.10
2023-03-24T00:25:04.232Z,22.10
2023-03-24T00:27:31.183Z,22.30
2023-03-24T00:29:59.504Z,22.10
2023-03-24T00:32:27.272Z,22.10
2023-03-24T00:34:54.210Z,22.40
2023-03-24T00:37:20.995Z,22.20
2023-03-24T00:39:47.521Z,22.60
2023-03-24T00:42:14.142Z,22.70
2023-03-24T00:44:40.720Z,23.50
2023-03-24T00:47:07.354Z,24.20
2023-03-24T00:49:44.696Z,25.10
2023-03-24T00:52:15.940Z,26.50
2023-03-24T00:54:43.316Z,29.90
2023-03-24T00:57:12.787Z,34.20
2023-03-24T00:59:42.503Z,33.00
2023-03-24T01:02:11.869Z,33.00
2023-03-24T01:04:39.531Z,36.00
2023-03-24T01:07:07.831Z,37.10
2023-03-24T01:09:36.600Z,38.40
2023-03-24T01:12:04.323Z,42.20
2023-03-24T01:14:31.493Z,42.10
2023-03-24T01:16:58.555Z,42.20
2023-03-24T01:19:25.388Z,42.20
2023-03-24T01:21:54.281Z,43.30
2023-03-24T01:24:21.751Z,45.00
2023-03-24T01:26:48.648Z,45.70
2023-03-24T01:29:15.490Z,47.50
2023-03-24T01:31:42.158Z,47.70
2023-03-24T01:34:08.749Z,48.70
2023-03-24T01:36:35.350Z,49.10
2023-03-24T01:39:02.182Z,51.30
2023-03-24T01:41:32.450Z,52.70
2023-03-24T01:43:59.649Z,55.20
2023-03-24T01:46:29.557Z,57.80
2023-03-24T01:49:07.159Z,57.90
2023-03-24T01:51:38.599Z,59.70
2023-03-24T01:54:08.549Z,60.40
2023-03-24T01:56:36.800Z,59.40
2023-03-24T01:59:08.192Z,58.90
2023-03-24T02:01:34.795Z,57.80
2023-03-24T02:04:04.090Z,58.40
2023-03-24T02:06:33.188Z,59.40
2023-03-24T02:09:01.486Z,59.60
2023-03-24T02:11:32.026Z,57.40
2023-03-24T02:13:58.686Z,59.00
2023-03-24T02:16:28.349Z,58.20
2023-03-24T02:18:57.675Z,60.00
2023-03-24T02:21:32.778Z,60.40
2023-03-24T02:24:02.450Z,61.50
2023-03-24T02:26:37.411Z,62.20
2023-03-24T02:29:16.048Z,63.00
2023-03-24T02:32:05.238Z,60.20
2023-03-24T02:34:41.185Z,58.90
2023-03-24T02:37:27.595Z,59.00
2023-03-24T02:39:58.098Z,57.80
2023-03-24T02:42:45.299Z,57.00
2023-03-24T02:45:27.689Z,56.70
2023-03-24T02:48:00.447Z,56.60
2023-03-24T02:50:35.302Z,56.80
2023-03-24T02:53:12.063Z,56.20
2023-03-24T02:55:46.963Z,56.60
2023-03-24T02:58:22.131Z,56.40
2023-03-24T03:00:52.289Z,56.70
2023-03-24T03:03:25.373Z,56.50
2023-03-24T03:05:54.560Z,56.70
2023-03-24T03:08:21.894Z,56.90
2023-03-24T03:10:50.268Z,57.40
2023-03-24T03:13:21.597Z,58.30
2023-03-24T03:15:50.416Z,59.60
2023-03-24T03:18:21.060Z,59.60
2023-03-24T03:20:53.090Z,59.20
2023-03-24T03:23:23.681Z,59.60
2023-03-24T03:25:53.016Z,60.40
2023-03-24T03:28:22.413Z,60.60
2023-03-24T03:30:57.540Z,60.00
2023-03-24T03:33:26.381Z,60.70
2023-03-24T03:36:05.105Z,61.20
2023-03-24T03:38:34.681Z,62.50
2023-03-24T03:41:03.511Z,62.40
2023-03-24T03:43:31.261Z,62.50
2023-03-24T03:45:58.891Z,61.00
2023-03-24T03:48:26.619Z,60.30
2023-03-24T03:51:06.354Z,60.90
2023-03-24T03:53:43.123Z,61.20
2023-03-24T03:56:10.041Z,61.40
2023-03-24T03:58:36.905Z,60.70
2023-03-24T04:01:03.936Z,60.60
2023-03-24T04:03:37.128Z,61.00
2023-03-24T04:06:04.144Z,62.30
2023-03-24T04:08:41.240Z,62.00
2023-03-24T04:11:15.527Z,62.00
2023-03-24T04:13:48.103Z,61.50
2023-03-24T04:16:33.842Z,60.70
2023-03-24T04:19:10.416Z,60.30
2023-03-24T04:21:55.822Z,60.30
2023-03-24T04:24:29.096Z,58.80
2023-03-24T04:27:00.595Z,58.20
2023-03-24T04:29:42.476Z,57.70
2023-03-24T04:32:20.828Z,56.90
2023-03-24T04:34:50.808Z,57.00
2023-03-24T04:37:22.876Z,57.00
2023-03-24T04:39:50.330Z,56.00
2023-03-24T04:42:25.502Z,56.50
2023-03-24T04:44:52.119Z,56.30
2023-03-24T04:47:24.326Z,55.90
2023-03-24T04:49:51.073Z,56.40
2023-03-24T04:52:18.170Z,56.70
2023-03-24T04:54:44.962Z,55.30
2023-03-24T04:57:11.627Z,55.00
2023-03-24T04:59:38.370Z,54.20
2023-03-24T05:02:05.666Z,56.00
2023-03-24T05:04:32.378Z,57.60
2023-03-24T05:06:58.918Z,58.70
2023-03-24T05:09:25.969Z,59.20
2023-03-24T05:11:52.691Z,56.30
2023-03-24T05:14:19.932Z,57.00
2023-03-24T05:16:46.511Z,56.50
2023-03-24T05:19:13.191Z,52.40
2023-03-24T05:21:39.804Z,49.80
2023-03-24T05:24:06.800Z,46.60
2023-03-24T05:26:33.546Z,46.20
2023-03-24T05:29:00.405Z,45.50
2023-03-24T05:31:27.194Z,41.80
2023-03-24T05:33:53.923Z,41.80
2023-03-24T05:36:20.539Z,39.50
2023-03-24T05:38:47.147Z,38.30
2023-03-24T05:41:13.720Z,39.50
2023-03-24T05:43:40.320Z,40.00
2023-03-24T05:46:07.062Z,38.10
2023-03-24T05:48:33.702Z,38.00
2023-03-24T05:51:00.304Z,37.40
2023-03-24T05:53:26.880Z,35.90
2023-03-24T05:55:53.745Z,35.40
2023-03-24T05:58:21.503Z,35.10
2023-03-24T06:00:48.323Z,35.40
2023-03-24T06:03:17.557Z,34.40
2023-03-24T06:05:46.059Z,62.40
2023-03-24T06:08:13.012Z,40.50
2023-03-24T06:10:40.674Z,23.80
2023-03-24T06:13:09.054Z,14.70
2023-03-24T06:15:36.066Z,16.20
2023-03-24T06:18:05.314Z,17.50
2023-03-24T06:20:32.332Z,19.50
2023-03-24T06:22:59.790Z,21.00
2023-03-24T06:25:28.625Z,22.80
2023-03-24T06:27:55.355Z,25.10
2023-03-24T06:30:21.985Z,25.20
2023-03-24T06:32:48.846Z,25.50
2023-03-24T06:35:17.253Z,26.20
2023-03-24T06:37:44.812Z,27.00
2023-03-24T06:40:14.417Z,27.50
2023-03-24T06:42:41.066Z,28.50
2023-03-24T06:45:08.495Z,29.60
2023-03-24T06:47:35.113Z,30.60
2023-03-24T06:50:01.781Z,31.60
2023-03-24T06:52:28.436Z,31.60
2023-03-24T06:54:55.020Z,31.60
2023-03-24T06:57:21.796Z,31.70
2023-03-24T06:59:49.140Z,32.80
2023-03-24T07:02:15.930Z,31.70
2023-03-24T07:04:42.738Z,31.80
2023-03-24T07:07:30.985Z,31.90
2023-03-24T07:09:56.578Z,29.50
2023-03-24T07:12:23.188Z,27.40
2023-03-24T07:14:49.783Z,26.30
2023-03-24T07:17:16.337Z,25.80
2023-03-24T07:19:43.093Z,25.00
2023-03-24T07:22:09.760Z,25.70
2023-03-24T07:24:36.302Z,23.10
2023-03-24T07:27:03.247Z,23.20
2023-03-24T07:29:29.925Z,23.20
2023-03-24T07:31:58.744Z,23.20
2023-03-24T07:34:28.447Z,23.20
2023-03-24T07:36:55.528Z,24.30
2023-03-24T07:39:22.131Z,24.30
2023-03-24T07:41:48.678Z,23.70
2023-03-24T07:44:15.803Z,23.10
2023-03-24T07:46:42.395Z,23.20
2023-03-24T07:49:18.785Z,35.10
2023-03-24T07:51:46.228Z,28.10
2023-03-24T07:54:12.990Z,22.20
2023-03-24T07:56:39.764Z,14.60
2023-03-24T07:59:06.448Z,11.00
2023-03-24T08:01:33.052Z,4.30
2023-03-24T08:03:59.882Z,5.70
2023-03-24T08:06:26.594Z,8.70
2023-03-24T08:08:53.165Z,10.30
2023-03-24T08:11:19.695Z,12.70
2023-03-24T08:13:46.396Z,14.50
2023-03-24T08:16:13.065Z,14.50
2023-03-24T08:18:39.725Z,15.00
2023-03-24T08:21:06.555Z,16.30
2023-03-24T08:23:33.257Z,17.90
2023-03-24T08:25:59.860Z,18.00
2023-03-24T08:28:26.439Z,18.50
2023-03-24T08:30:53.144Z,18.30
2023-03-24T08:33:19.818Z,17.80
2023-03-24T08:35:46.747Z,19.00
2023-03-24T08:38:16.823Z,19.90
2023-03-24T08:40:44.814Z,21.10
2023-03-24T08:43:13.903Z,21.80
2023-03-24T08:45:40.915Z,21.90
2023-03-24T08:48:08.396Z,23.50
2023-03-24T08:50:37.071Z,23.50
2023-03-24T08:53:04.094Z,24.70
2023-03-24T08:55:30.912Z,25.30
2023-03-24T08:57:57.618Z,27.80
2023-03-24T09:00:24.816Z,28.10
2023-03-24T09:02:52.599Z,31.90
2023-03-24T09:05:22.776Z,35.10
2023-03-24T09:07:56.524Z,32.90
2023-03-24T09:10:23.062Z,37.10
2023-03-24T09:12:49.838Z,41.00
2023-03-24T09:15:16.452Z,40.80
2023-03-24T09:17:43.429Z,40.50
2023-03-24T09:20:11.967Z,43.90
2023-03-24T09:22:40.286Z,46.10
2023-03-24T09:25:08.476Z,48.40
2023-03-24T09:27:35.040Z,49.20
2023-03-24T09:30:02.230Z,54.70
2023-03-24T09:32:29.017Z,57.40
2023-03-24T09:34:55.639Z,60.60
2023-03-24T09:37:22.259Z,61.80
2023-03-24T09:39:49.241Z,61.40
2023-03-24T09:42:23.055Z,64.10
2023-03-24T09:44:57.735Z,64.20
2023-03-24T09:47:50.825Z,65.40
2023-03-24T09:50:23.255Z,65.80
2023-03-24T09:52:51.739Z,67.00
2023-03-24T09:55:23.825Z,65.60
2023-03-24T09:57:51.252Z,65.80
2023-03-24T10:00:20.909Z,65.50
2023-03-24T10:02:49.085Z,64.60
2023-03-24T10:05:19.731Z,62.80
2023-03-24T10:07:52.625Z,61.70
2023-03-24T10:10:37.981Z,55.30
2023-03-24T10:13:12.018Z,55.50
2023-03-24T10:15:57.586Z,52.20
2023-03-24T10:18:24.175Z,49.60
2023-03-24T10:20:54.327Z,45.90
2023-03-24T10:23:23.800Z,43.00
2023-03-24T10:26:02.794Z,41.10
2023-03-24T10:28:35.580Z,37.20
2023-03-24T10:31:05.077Z,37.40
2023-03-24T10:33:33.513Z,37.10
2023-03-24T10:36:07.990Z,39.10
2023-03-24T10:38:35.997Z,40.30
2023-03-24T10:41:02.807Z,37.50
2023-03-24T10:43:29.746Z,34.50
2023-03-24T10:45:57.616Z,34.00
2023-03-24T10:48:54.388Z,32.80
2023-03-24T10:51:27.085Z,30.80
2023-03-24T10:54:13.197Z,34.00
2023-03-24T10:56:41.357Z,30.30
2023-03-24T10:59:22.574Z,31.00
2023-03-24T11:01:49.282Z,30.40
2023-03-24T11:04:17.364Z,29.80
2023-03-24T11:07:01.325Z,30.20
2023-03-24T11:09:29.657Z,31.70
2023-03-24T11:11:58.442Z,33.70
2023-03-24T11:14:28.518Z,33.80
2023-03-24T11:17:21.551Z,31.00
2023-03-24T11:19:58.158Z,30.50
2023-03-24T11:22:25.293Z,31.90
2023-03-24T11:24:54.974Z,33.60
2023-03-24T11:27:21.616Z,33.90
2023-03-24T11:29:54.936Z,33.90
2023-03-24T11:32:27.029Z,31.00
2023-03-24T11:35:01.374Z,32.60
2023-03-24T11:37:29.334Z,32.50
2023-03-24T11:40:15.656Z,32.50
2023-03-24T11:42:46.049Z,28.90
2023-03-24T11:45:22.302Z,28.90
2023-03-24T11:47:50.270Z,29.00
2023-03-24T11:50:19.696Z,25.80
2023-03-24T11:52:54.915Z,21.00
2023-03-24T11:55:29.264Z,16.80
2023-03-24T11:57:58.867Z,11.80
2023-03-24T12:00:29.493Z,8.50
2023-03-24T12:03:25.860Z,6.50
2023-03-24T12:05:54.962Z,4.20
2023-03-24T12:08:44.330Z,3.10
2023-03-24T12:11:19.190Z,2.80
2023-03-24T12:13:49.117Z,2.70
2023-03-24T12:16:30.889Z,2.40
2023-03-24T12:19:16.417Z,1.60
2023-03-24T12:21:58.377Z,1.60
2023-03-24T12:24:38.644Z,1.00
2023-03-24T12:27:05.196Z,1.00
2023-03-24T12:29:38.901Z,1.00
2023-03-24T12:32:24.122Z,1.00
2023-03-24T12:35:00.269Z,2.60
2023-03-24T12:37:45.237Z,6.40
2023-03-24T12:40:13.099Z,6.80
2023-03-24T12:42:44.437Z,5.70
2023-03-24T12:45:11.019Z,5.60
2023-03-24T12:47:49.975Z,4.60
2023-03-24T12:50:35.253Z,3.70
2023-03-24T12:53:24.126Z,2.00
2023-03-24T12:55:50.926Z,1.40
2023-03-24T12:58:23.466Z,1.00
2023-03-24T13:01:10.499Z,1.00
2023-03-24T13:03:38.722Z,1.00
2023-03-24T13:06:29.315Z,1.00
2023-03-24T13:09:03.529Z,1.00
2023-03-24T13:11:50.539Z,1.00
2023-03-24T13:14:20.891Z,1.00
2023-03-24T13:16:48.046Z,1.00
2023-03-24T13:19:17.896Z,1.00
2023-03-24T13:21:44.585Z,1.00
2023-03-24T13:24:14.364Z,1.00
2023-03-24T13:26:51.098Z,1.00
2023-03-24T13:29:17.798Z,1.00
2023-03-24T13:31:46.820Z,1.00
2023-03-24T13:34:35.037Z,1.00
2023-03-24T13:37:01.599Z,1.00
2023-03-24T13:39:28.793Z,1.00
2023-03-24T13:41:57.178Z,1.00
2023-03-24T13:44:30.412Z,1.00
2023-03-24T13:47:03.192Z,1.80
2023-03-24T13:49:30.560Z,6.60
2023-03-24T13:51:57.417Z,16.00
2023-03-24T13:54:25.919Z,24.90
2023-03-24T13:56:54.586Z,32.00
2023-03-24T13:59:25.349Z,36.20
2023-03-24T14:02:09.620Z,41.10
2023-03-24T14:04:46.906Z,43.20
2023-03-24T14:07:32.463Z,43.90
2023-03-24T14:10:12.055Z,46.10
2023-03-24T14:12:51.852Z,49.50
2023-03-24T14:15:22.599Z,53.40
2023-03-24T14:17:53.364Z,51.90
2023-03-24T14:20:25.969Z,49.30
2023-03-24T14:22:53.113Z,52.90
2023-03-24T14:25:24.761Z,55.90
2023-03-24T14:27:52.324Z,55.90
2023-03-24T14:30:26.093Z,55.70
2023-03-24T14:32:54.958Z,57.40
2023-03-24T14:35:32.127Z,60.60
2023-03-24T14:38:04.523Z,55.20
2023-03-24T14:40:38.553Z,55.10
2023-03-24T14:43:24.978Z,55.10
2023-03-24T14:45:53.214Z,56.50
2023-03-24T14:48:28.129Z,56.40
2023-03-24T14:50:55.436Z,58.40
2023-03-24T14:53:22.169Z,55.20
2023-03-24T14:55:48.944Z,55.20
2023-03-24T14:58:22.147Z,48.10
2023-03-24T15:01:06.411Z,46.20
2023-03-24T15:03:40.197Z,38.40
2023-03-24T15:06:22.992Z,34.20
2023-03-24T15:08:50.680Z,36.70
2023-03-24T15:11:19.360Z,37.90
2023-03-24T15:13:56.038Z,40.20
2023-03-24T15:16:25.820Z,39.10
2023-03-24T15:19:00.537Z,40.30
2023-03-24T15:21:36.121Z,39.30
2023-03-24T15:24:16.702Z,39.40
2023-03-24T15:26:43.295Z,36.00
2023-03-24T15:29:10.798Z,37.40
2023-03-24T15:31:39.245Z,37.10
2023-03-24T15:34:25.532Z,40.10
2023-03-24T15:36:57.316Z,42.60
2023-03-24T15:39:26.260Z,38.80
2023-03-24T15:41:53.206Z,35.70
2023-03-24T15:44:21.311Z,37.70
2023-03-24T15:46:48.735Z,35.60
2023-03-24T15:49:41.390Z,34.20
2023-03-24T15:52:23.503Z,35.70
2023-03-24T15:54:51.378Z,30.60
2023-03-24T15:57:19.238Z,30.90
2023-03-24T15:59:50.338Z,29.80
2023-03-24T16:02:39.005Z,28.50
2023-03-24T16:05:13.155Z,26.30
2023-03-24T16:07:41.273Z,27.30
2023-03-24T16:10:25.216Z,28.80
2023-03-24T16:12:51.780Z,26.30
2023-03-24T16:15:18.337Z,24.40
2023-03-24T16:17:45.434Z,27.20
2023-03-24T16:20:19.780Z,26.10
2023-03-24T16:22:46.860Z,26.80
2023-03-24T16:25:14.399Z,26.30
2023-03-24T16:27:41.188Z,26.10
2023-03-24T16:30:16.615Z,26.10
2023-03-24T16:32:43.192Z,26.00
2023-03-24T16:35:10.607Z,26.00
2023-03-24T16:37:37.209Z,27.30
2023-03-24T16:40:11.865Z,28.50
2023-03-24T16:42:38.430Z,29.10
2023-03-24T16:45:05.496Z,30.40
2023-03-24T16:47:32.088Z,30.50
2023-03-24T16:49:58.651Z,30.40
2023-03-24T16:52:25.220Z,30.30
2023-03-24T16:54:51.802Z,30.90
2023-03-24T16:57:18.382Z,33.30
2023-03-24T16:59:44.953Z,33.20
2023-03-24T17:02:11.485Z,30.30
2023-03-24T17:04:38.095Z,31.00
2023-03-24T17:07:04.681Z,30.30
2023-03-24T17:09:32.180Z,30.30
2023-03-24T17:12:00.528Z,30.50
2023-03-24T17:14:27.324Z,29.40
2023-03-24T17:16:54.104Z,28.70
2023-03-24T17:19:21.809Z,29.70
2023-03-24T17:22:02.412Z,28.70
2023-03-24T17:24:35.602Z,27.40
2023-03-24T17:27:03.237Z,25.70
2023-03-24T17:29:29.788Z,25.70
2023-03-24T17:31:56.381Z,24.60
2023-03-24T17:34:22.936Z,24.00
2023-03-24T17:36:50.690Z,24.20
2023-03-24T17:39:18.321Z,23.70
2023-03-24T17:41:45.142Z,22.80
2023-03-24T17:44:11.819Z,23.50
2023-03-24T17:46:38.702Z,23.90
2023-03-24T17:49:05.495Z,23.00
2023-03-24T17:51:32.039Z,24.30
2023-03-24T17:53:59.767Z,24.20
2023-03-24T17:56:26.392Z,25.60
2023-03-24T17:58:54.719Z,25.60
2023-03-24T18:01:21.874Z,25.60
2023-03-24T18:03:49.821Z,26.50
2023-03-24T18:06:16.780Z,28.20
2023-03-24T18:08:43.540Z,28.80
2023-03-24T18:11:11.555Z,29.50
2023-03-24T18:13:38.157Z,30.00
2023-03-24T18:16:19.999Z,30.00
2023-03-24T18:18:48.153Z,29.90
2023-03-24T18:21:14.790Z,31.40
2023-03-24T18:23:41.481Z,31.40
2023-03-24T18:26:08.175Z,30.70
2023-03-24T18:28:37.231Z,32.10
2023-03-24T18:31:08.695Z,33.40
2023-03-24T18:33:35.395Z,33.60
2023-03-24T18:36:01.989Z,33.90
2023-03-24T18:38:28.568Z,34.50
2023-03-24T18:41:02.985Z,36.00
2023-03-24T18:43:30.554Z,36.90
2023-03-24T18:45:57.560Z,38.50
2023-03-24T18:48:24.172Z,39.00
2023-03-24T18:50:51.842Z,39.50
2023-03-24T18:53:18.789Z,40.60
2023-03-24T18:55:46.557Z,40.70
2023-03-24T18:58:15.261Z,40.60
2023-03-24T19:00:42.862Z,41.10
2023-03-24T19:03:10.008Z,42.90
2023-03-24T19:05:36.725Z,44.70
2023-03-24T19:08:07.419Z,46.60
2023-03-24T19:10:35.013Z,48.00
2023-03-24T19:13:02.739Z,50.50
2023-03-24T19:15:29.938Z,68.50
2023-03-24T19:17:58.671Z,67.30
2023-03-24T19:20:25.986Z,64.30
2023-03-24T19:22:55.604Z,47.40
2023-03-24T19:25:22.865Z,41.80
2023-03-24T19:27:49.447Z,44.60
2023-03-24T19:30:17.096Z,52.90
2023-03-24T19:32:44.282Z,42.10
2023-03-24T19:35:10.940Z,51.00
2023-03-24T19:37:37.632Z,37.50
2023-03-24T19:40:07.477Z,34.70
2023-03-24T19:42:34.080Z,35.70
2023-03-24T19:45:00.824Z,38.10
2023-03-24T19:47:27.339Z,41.00
2023-03-24T19:49:56.791Z,44.90
2023-03-24T19:52:23.405Z,49.00
2023-03-24T19:54:52.488Z,51.40
2023-03-24T19:57:19.332Z,52.80
2023-03-24T19:59:46.066Z,56.50
2023-03-24T20:02:16.785Z,59.60
2023-03-24T20:04:43.818Z,61.30
2023-03-24T20:07:10.918Z,61.50
2023-03-24T20:09:37.730Z,62.80
2023-03-24T20:12:04.681Z,64.60
2023-03-24T20:14:31.874Z,65.90
2023-03-24T20:16:59.036Z,67.60
2023-03-24T20:19:25.931Z,68.60
2023-03-24T20:21:52.563Z,69.80
2023-03-24T20:24:19.353Z,69.80
2023-03-24T20:26:48.337Z,69.80
2023-03-24T20:29:15.345Z,69.80
2023-03-24T20:31:42.870Z,69.80
2023-03-24T20:34:10.780Z,69.70
2023-03-24T20:36:38.436Z,71.60
2023-03-24T20:39:05.917Z,71.20
2023-03-24T20:41:32.806Z,72.40
2023-03-24T20:43:59.369Z,72.50
2023-03-24T20:46:26.203Z,72.70
2023-03-24T20:48:52.811Z,72.00
2023-03-24T20:51:19.428Z,73.50
2023-03-24T20:53:49.652Z,73.80
2023-03-24T20:56:16.846Z,72.20
2023-03-24T20:58:45.282Z,72.20
2023-03-24T21:01:20.426Z,72.30
2023-03-24T21:03:50.713Z,72.60
2023-03-24T21:06:17.938Z,72.60
2023-03-24T21:08:45.327Z,72.90
2023-03-24T21:11:12.616Z,72.90
2023-03-24T21:13:39.189Z,72.10
2023-03-24T21:16:08.221Z,72.90
2023-03-24T21:18:36.251Z,73.70
2023-03-24T21:21:03.743Z,73.90
2023-03-24T21:23:39.002Z,75.10
2023-03-24T21:26:06.584Z,75.30
2023-03-24T21:28:33.692Z,76.30
2023-03-24T21:31:06.693Z,77.70
2023-03-24T21:33:33.314Z,77.80
2023-03-24T21:35:59.942Z,77.70
2023-03-24T21:38:27.042Z,77.60
2023-03-24T21:40:58.467Z,77.60
2023-03-24T21:43:26.974Z,77.60
2023-03-24T21:45:54.422Z,77.60
2023-03-24T21:48:21.437Z,77.60
2023-03-24T21:50:52.350Z,77.70
2023-03-24T21:53:20.776Z,77.60
2023-03-24T21:55:52.116Z,77.50
2023-03-24T21:58:19.425Z,77.50
2023-03-24T22:00:46.942Z,77.60
2023-03-24T22:03:13.755Z,77.50
2023-03-24T22:05:40.658Z,77.40
2023-03-24T22:08:07.639Z,77.50
2023-03-24T22:10:34.996Z,78.10
2023-03-24T22:13:02.814Z,78.50
2023-03-24T22:15:32.463Z,77.70
2023-03-24T22:17:59.657Z,77.50
2023-03-24T22:20:28.099Z,77.50
2023-03-24T22:22:54.857Z,77.50
2023-03-24T22:25:21.478Z,78.00
2023-03-24T22:27:50.651Z,79.50
2023-03-24T22:30:18.724Z,81.10
2023-03-24T22:32:45.308Z,80.00
2023-03-24T22:35:11.941Z,81.20
2023-03-24T22:37:38.496Z,80.80
2023-03-24T22:40:05.750Z,81.10
2023-03-24T22:42:32.328Z,81.40
2023-03-24T22:44:58.840Z,81.60
2023-03-24T22:47:25.628Z,81.30
2023-03-24T22:49:52.165Z,81.00
2023-03-24T22:52:18.819Z,80.50
2023-03-24T22:54:45.391Z,79.30
2023-03-24T22:57:12.012Z,79.00
2023-03-24T22:59:38.665Z,77.50
2023-03-24T23:02:09.940Z,77.60
2023-03-24T23:04:37.221Z,74.70
2023-03-24T23:07:06.130Z,72.40
2023-03-24T23:09:33.238Z,70.30
2023-03-24T23:11:59.798Z,69.60
2023-03-24T23:14:26.405Z,69.30
2023-03-24T23:16:54.278Z,68.80
2023-03-24T23:19:20.873Z,67.60
2023-03-24T23:21:47.414Z,66.20
2023-03-24T23:24:13.994Z,65.80
2023-03-24T23:26:40.670Z,64.50
2023-03-24T23:29:07.326Z,64.00
2023-03-24T23:31:35.594Z,63.40
2023-03-24T23:34:04.349Z,62.80
2023-03-24T23:36:34.141Z,62.60
2023-03-24T23:39:01.129Z,62.10
2023-03-24T23:41:27.729Z,61.20
2023-03-24T23:43:55.140Z,60.50
2023-03-24T23:46:23.805Z,60.50
2023-03-24T23:48:50.834Z,60.50
2023-03-24T23:51:17.666Z,60.50
2023-03-24T23:53:44.387Z,60.50
2023-03-24T23:56:12.550Z,60.50
2023-03-24T23:58:40.286Z,61.00
